sensor_id;sensor_type;location;lat;lon;timestamp;P1;durP1;ratioP1;P2;durP2;ratioP2
8349;SDS011;60699;48.946;8.412;2024-02-15T00:01:07;2.80;;;2.22;;
8349;SDS011;60699;48.946;8.412;2024-02-15T00:03:34;3.05;;;2.30;;
8349;SDS011;60699;48.946;8.412;2024-02-15T00:06:03;3.30;;;1.80;;
8349;SDS011;60699;48.946;8.412;2024-02-15T00:08:30;3.58;;;2.13;;
8349;SDS011;60699;48.946;8.412;2024-02-15T00:10:57;2.38;;;2.13;;
8349;SDS011;60699;48.946;8.412;2024-02-15T00:13:24;1.90;;;1.80;;
8349;SDS011;60699;48.946;8.412;2024-02-15T00:15:51;2.30;;;2.15;;
8349;SDS011;60699;48.946;8.412;2024-02-15T00:18:18;1.90;;;1.77;;
8349;SDS011;60699;48.946;8.412;2024-02-15T00:20:46;2.10;;;1.90;;
8349;SDS011;60699;48.946;8.412;2024-02-15T00:23:14;3.72;;;1.85;;
8349;SDS011;60699;48.946;8.412;2024-02-15T00:25:42;1.77;;;1.67;;
8349;SDS011;60699;48.946;8.412;2024-02-15T00:28:09;2.65;;;2.30;;
8349;SDS011;60699;48.946;8.412;2024-02-15T00:30:37;2.53;;;2.05;;
8349;SDS011;60699;48.946;8.412;2024-02-15T00:33:04;4.78;;;2.20;;
8349;SDS011;60699;48.946;8.412;2024-02-15T00:35:32;2.00;;;1.80;;
8349;SDS011;60699;48.946;8.412;2024-02-15T00:37:59;2.55;;;2.35;;
8349;SDS011;60699;48.946;8.412;2024-02-15T00:40:27;3.42;;;2.22;;
8349;SDS011;60699;48.946;8.412;2024-02-15T00:42:54;4.93;;;1.90;;
8349;SDS011;60699;48.946;8.412;2024-02-15T00:45:21;2.22;;;2.05;;
8349;SDS011;60699;48.946;8.412;2024-02-15T00:47:48;2.17;;;1.98;;
8349;SDS011;60699;48.946;8.412;2024-02-15T00:50:16;3.88;;;2.70;;
8349;SDS011;60699;48.946;8.412;2024-02-15T00:52:43;5.68;;;2.25;;
8349;SDS011;60699;48.946;8.412;2024-02-15T00:55:10;2.95;;;2.35;;
8349;SDS011;60699;48.946;8.412;2024-02-15T00:57:38;2.42;;;2.22;;
8349;SDS011;60699;48.946;8.412;2024-02-15T01:00:06;3.38;;;2.50;;
8349;SDS011;60699;48.946;8.412;2024-02-15T01:02:34;2.85;;;2.17;;
8349;SDS011;60699;48.946;8.412;2024-02-15T01:05:01;2.70;;;2.20;;
8349;SDS011;60699;48.946;8.412;2024-02-15T01:07:29;2.10;;;1.90;;
8349;SDS011;60699;48.946;8.412;2024-02-15T01:09:56;2.70;;;1.90;;
8349;SDS011;60699;48.946;8.412;2024-02-15T01:12:23;4.95;;;2.50;;
8349;SDS011;60699;48.946;8.412;2024-02-15T01:14:51;3.33;;;2.20;;
8349;SDS011;60699;48.946;8.412;2024-02-15T01:17:18;2.30;;;2.05;;
8349;SDS011;60699;48.946;8.412;2024-02-15T01:19:45;2.33;;;1.73;;
8349;SDS011;60699;48.946;8.412;2024-02-15T01:22:12;4.03;;;2.10;;
8349;SDS011;60699;48.946;8.412;2024-02-15T01:24:39;2.13;;;2.03;;
8349;SDS011;60699;48.946;8.412;2024-02-15T01:27:06;5.03;;;2.53;;
8349;SDS011;60699;48.946;8.412;2024-02-15T01:29:34;3.35;;;2.00;;
8349;SDS011;60699;48.946;8.412;2024-02-15T01:32:03;4.10;;;1.90;;
8349;SDS011;60699;48.946;8.412;2024-02-15T01:34:30;3.40;;;2.17;;
8349;SDS011;60699;48.946;8.412;2024-02-15T01:36:57;1.90;;;1.80;;
8349;SDS011;60699;48.946;8.412;2024-02-15T01:39:24;3.55;;;2.10;;
8349;SDS011;60699;48.946;8.412;2024-02-15T01:41:51;2.72;;;1.80;;
8349;SDS011;60699;48.946;8.412;2024-02-15T01:44:21;2.47;;;2.28;;
8349;SDS011;60699;48.946;8.412;2024-02-15T01:46:49;2.78;;;2.42;;
8349;SDS011;60699;48.946;8.412;2024-02-15T01:49:18;3.85;;;2.30;;
8349;SDS011;60699;48.946;8.412;2024-02-15T01:51:47;2.85;;;1.90;;
8349;SDS011;60699;48.946;8.412;2024-02-15T01:54:14;2.72;;;2.42;;
8349;SDS011;60699;48.946;8.412;2024-02-15T01:56:42;1.70;;;1.60;;
8349;SDS011;60699;48.946;8.412;2024-02-15T01:59:10;2.13;;;1.95;;
8349;SDS011;60699;48.946;8.412;2024-02-15T02:01:38;3.10;;;1.90;;
8349;SDS011;60699;48.946;8.412;2024-02-15T02:04:05;3.17;;;2.88;;
8349;SDS011;60699;48.946;8.412;2024-02-15T02:06:34;2.75;;;1.85;;
8349;SDS011;60699;48.946;8.412;2024-02-15T02:09:01;2.60;;;2.17;;
8349;SDS011;60699;48.946;8.412;2024-02-15T02:11:28;3.60;;;2.20;;
8349;SDS011;60699;48.946;8.412;2024-02-15T02:13:55;3.05;;;1.95;;
8349;SDS011;60699;48.946;8.412;2024-02-15T02:16:25;1.90;;;1.80;;
8349;SDS011;60699;48.946;8.412;2024-02-15T02:18:54;2.20;;;1.98;;
8349;SDS011;60699;48.946;8.412;2024-02-15T02:21:21;2.28;;;2.08;;
8349;SDS011;60699;48.946;8.412;2024-02-15T02:23:52;2.38;;;1.92;;
8349;SDS011;60699;48.946;8.412;2024-02-15T02:26:21;2.70;;;2.10;;
8349;SDS011;60699;48.946;8.412;2024-02-15T02:28:48;2.30;;;2.10;;
8349;SDS011;60699;48.946;8.412;2024-02-15T02:31:15;2.25;;;1.80;;
8349;SDS011;60699;48.946;8.412;2024-02-15T02:33:43;2.95;;;2.00;;
8349;SDS011;60699;48.946;8.412;2024-02-15T02:36:13;2.75;;;2.25;;
8349;SDS011;60699;48.946;8.412;2024-02-15T02:38:41;2.97;;;2.53;;
8349;SDS011;60699;48.946;8.412;2024-02-15T02:41:10;2.72;;;1.92;;
8349;SDS011;60699;48.946;8.412;2024-02-15T02:43:38;3.15;;;2.67;;
8349;SDS011;60699;48.946;8.412;2024-02-15T02:46:05;2.10;;;2.00;;
8349;SDS011;60699;48.946;8.412;2024-02-15T02:48:32;5.18;;;2.35;;
8349;SDS011;60699;48.946;8.412;2024-02-15T02:50:59;3.35;;;2.03;;
8349;SDS011;60699;48.946;8.412;2024-02-15T02:53:27;3.97;;;1.85;;
8349;SDS011;60699;48.946;8.412;2024-02-15T02:55:55;2.97;;;2.78;;
8349;SDS011;60699;48.946;8.412;2024-02-15T02:58:22;2.58;;;1.90;;
8349;SDS011;60699;48.946;8.412;2024-02-15T03:00:51;2.17;;;1.85;;
8349;SDS011;60699;48.946;8.412;2024-02-15T03:03:18;4.25;;;1.90;;
8349;SDS011;60699;48.946;8.412;2024-02-15T03:05:45;2.45;;;1.98;;
8349;SDS011;60699;48.946;8.412;2024-02-15T03:08:13;2.08;;;1.75;;
8349;SDS011;60699;48.946;8.412;2024-02-15T03:10:42;2.63;;;2.42;;
8349;SDS011;60699;48.946;8.412;2024-02-15T03:13:09;5.90;;;2.45;;
8349;SDS011;60699;48.946;8.412;2024-02-15T03:15:37;5.15;;;2.30;;
8349;SDS011;60699;48.946;8.412;2024-02-15T03:18:08;2.20;;;2.00;;
8349;SDS011;60699;48.946;8.412;2024-02-15T03:20:36;2.45;;;2.30;;
8349;SDS011;60699;48.946;8.412;2024-02-15T03:23:03;2.30;;;2.10;;
8349;SDS011;60699;48.946;8.412;2024-02-15T03:25:30;3.30;;;1.98;;
8349;SDS011;60699;48.946;8.412;2024-02-15T03:27:59;2.63;;;1.70;;
8349;SDS011;60699;48.946;8.412;2024-02-15T03:30:29;5.13;;;1.65;;
8349;SDS011;60699;48.946;8.412;2024-02-15T03:32:57;1.80;;;1.70;;
8349;SDS011;60699;48.946;8.412;2024-02-15T03:35:25;1.98;;;1.88;;
8349;SDS011;60699;48.946;8.412;2024-02-15T03:37:53;2.10;;;1.58;;
8349;SDS011;60699;48.946;8.412;2024-02-15T03:40:21;2.10;;;2.00;;
8349;SDS011;60699;48.946;8.412;2024-02-15T03:42:51;1.95;;;1.85;;
8349;SDS011;60699;48.946;8.412;2024-02-15T03:45:18;2.20;;;2.00;;
8349;SDS011;60699;48.946;8.412;2024-02-15T03:47:49;2.10;;;1.65;;
8349;SDS011;60699;48.946;8.412;2024-02-15T03:50:16;2.20;;;2.00;;
8349;SDS011;60699;48.946;8.412;2024-02-15T03:52:45;1.98;;;1.88;;
8349;SDS011;60699;48.946;8.412;2024-02-15T03:55:12;3.35;;;1.95;;
8349;SDS011;60699;48.946;8.412;2024-02-15T03:57:39;1.80;;;1.70;;
8349;SDS011;60699;48.946;8.412;2024-02-15T04:00:08;2.55;;;1.50;;
8349;SDS011;60699;48.946;8.412;2024-02-15T04:02:37;2.42;;;1.90;;
8349;SDS011;60699;48.946;8.412;2024-02-15T04:05:05;2.05;;;1.95;;
8349;SDS011;60699;48.946;8.412;2024-02-15T04:07:34;2.72;;;2.00;;
8349;SDS011;60699;48.946;8.412;2024-02-15T04:10:03;1.98;;;1.83;;
8349;SDS011;60699;48.946;8.412;2024-02-15T04:12:31;1.85;;;1.73;;
8349;SDS011;60699;48.946;8.412;2024-02-15T04:14:58;1.75;;;1.65;;
8349;SDS011;60699;48.946;8.412;2024-02-15T04:17:30;2.20;;;2.00;;
8349;SDS011;60699;48.946;8.412;2024-02-15T04:19:57;3.17;;;2.08;;
8349;SDS011;60699;48.946;8.412;2024-02-15T04:22:25;1.63;;;1.52;;
8349;SDS011;60699;48.946;8.412;2024-02-15T04:24:52;1.55;;;1.45;;
8349;SDS011;60699;48.946;8.412;2024-02-15T04:27:23;1.70;;;1.60;;
8349;SDS011;60699;48.946;8.412;2024-02-15T04:29:50;2.40;;;2.20;;
8349;SDS011;60699;48.946;8.412;2024-02-15T04:32:17;3.25;;;2.40;;
8349;SDS011;60699;48.946;8.412;2024-02-15T04:34:44;1.92;;;1.80;;
8349;SDS011;60699;48.946;8.412;2024-02-15T04:37:12;2.40;;;1.70;;
8349;SDS011;60699;48.946;8.412;2024-02-15T04:39:39;1.90;;;1.80;;
8349;SDS011;60699;48.946;8.412;2024-02-15T04:42:06;2.35;;;2.15;;
8349;SDS011;60699;48.946;8.412;2024-02-15T04:44:38;2.00;;;1.73;;
8349;SDS011;60699;48.946;8.412;2024-02-15T04:47:05;4.03;;;1.90;;
8349;SDS011;60699;48.946;8.412;2024-02-15T04:49:32;1.70;;;1.60;;
8349;SDS011;60699;48.946;8.412;2024-02-15T04:51:59;1.58;;;1.48;;
8349;SDS011;60699;48.946;8.412;2024-02-15T04:54:27;2.55;;;1.55;;
8349;SDS011;60699;48.946;8.412;2024-02-15T04:56:55;1.75;;;1.65;;
8349;SDS011;60699;48.946;8.412;2024-02-15T04:59:22;2.58;;;1.80;;
8349;SDS011;60699;48.946;8.412;2024-02-15T05:01:52;1.85;;;1.75;;
8349;SDS011;60699;48.946;8.412;2024-02-15T05:04:19;1.67;;;1.58;;
8349;SDS011;60699;48.946;8.412;2024-02-15T05:06:46;3.33;;;1.73;;
8349;SDS011;60699;48.946;8.412;2024-02-15T05:09:13;3.25;;;1.75;;
8349;SDS011;60699;48.946;8.412;2024-02-15T05:11:43;1.98;;;1.88;;
8349;SDS011;60699;48.946;8.412;2024-02-15T05:14:12;1.92;;;1.83;;
8349;SDS011;60699;48.946;8.412;2024-02-15T05:16:44;3.40;;;2.10;;
8349;SDS011;60699;48.946;8.412;2024-02-15T05:19:14;1.75;;;1.55;;
8349;SDS011;60699;48.946;8.412;2024-02-15T05:21:41;2.08;;;1.98;;
8349;SDS011;60699;48.946;8.412;2024-02-15T05:24:09;2.17;;;1.85;;
8349;SDS011;60699;48.946;8.412;2024-02-15T05:26:36;2.58;;;2.20;;
8349;SDS011;60699;48.946;8.412;2024-02-15T05:29:03;1.60;;;1.50;;
8349;SDS011;60699;48.946;8.412;2024-02-15T05:31:31;1.98;;;1.80;;
8349;SDS011;60699;48.946;8.412;2024-02-15T05:33:59;1.98;;;1.88;;
8349;SDS011;60699;48.946;8.412;2024-02-15T05:36:28;1.60;;;1.50;;
8349;SDS011;60699;48.946;8.412;2024-02-15T05:38:55;2.20;;;1.75;;
8349;SDS011;60699;48.946;8.412;2024-02-15T05:41:23;4.82;;;1.70;;
8349;SDS011;60699;48.946;8.412;2024-02-15T05:43:50;2.17;;;2.05;;
8349;SDS011;60699;48.946;8.412;2024-02-15T05:46:18;4.40;;;2.45;;
8349;SDS011;60699;48.946;8.412;2024-02-15T05:48:46;2.35;;;2.15;;
8349;SDS011;60699;48.946;8.412;2024-02-15T05:51:14;2.70;;;2.10;;
8349;SDS011;60699;48.946;8.412;2024-02-15T05:53:42;1.95;;;1.85;;
8349;SDS011;60699;48.946;8.412;2024-02-15T05:56:10;7.13;;;2.30;;
8349;SDS011;60699;48.946;8.412;2024-02-15T05:58:38;2.33;;;2.13;;
8349;SDS011;60699;48.946;8.412;2024-02-15T06:01:05;1.90;;;1.80;;
8349;SDS011;60699;48.946;8.412;2024-02-15T06:03:35;1.80;;;1.70;;
8349;SDS011;60699;48.946;8.412;2024-02-15T06:06:05;1.95;;;1.85;;
8349;SDS011;60699;48.946;8.412;2024-02-15T06:08:32;1.80;;;1.70;;
8349;SDS011;60699;48.946;8.412;2024-02-15T06:11:01;2.85;;;2.05;;
8349;SDS011;60699;48.946;8.412;2024-02-15T06:13:28;3.47;;;2.10;;
8349;SDS011;60699;48.946;8.412;2024-02-15T06:15:55;2.55;;;2.35;;
8349;SDS011;60699;48.946;8.412;2024-02-15T06:18:23;3.38;;;2.30;;
8349;SDS011;60699;48.946;8.412;2024-02-15T06:20:51;8.50;;;2.50;;
8349;SDS011;60699;48.946;8.412;2024-02-15T06:23:18;2.38;;;1.88;;
8349;SDS011;60699;48.946;8.412;2024-02-15T06:25:46;2.70;;;2.50;;
8349;SDS011;60699;48.946;8.412;2024-02-15T06:28:14;8.52;;;2.92;;
8349;SDS011;60699;48.946;8.412;2024-02-15T06:31:05;5.38;;;2.60;;
8349;SDS011;60699;48.946;8.412;2024-02-15T06:33:50;7.80;;;3.20;;
8349;SDS011;60699;48.946;8.412;2024-02-15T06:36:34;2.60;;;2.40;;
8349;SDS011;60699;48.946;8.412;2024-02-15T06:39:18;2.72;;;2.42;;
8349;SDS011;60699;48.946;8.412;2024-02-15T06:42:03;3.53;;;2.22;;
8349;SDS011;60699;48.946;8.412;2024-02-15T06:44:33;2.30;;;2.10;;
8349;SDS011;60699;48.946;8.412;2024-02-15T06:47:00;4.35;;;2.45;;
8349;SDS011;60699;48.946;8.412;2024-02-15T06:49:27;6.57;;;2.85;;
8349;SDS011;60699;48.946;8.412;2024-02-15T06:51:54;3.45;;;3.15;;
8349;SDS011;60699;48.946;8.412;2024-02-15T06:54:21;4.90;;;2.20;;
8349;SDS011;60699;48.946;8.412;2024-02-15T06:56:48;5.07;;;3.28;;
8349;SDS011;60699;48.946;8.412;2024-02-15T06:59:17;3.45;;;2.50;;
8349;SDS011;60699;48.946;8.412;2024-02-15T07:01:45;3.08;;;2.75;;
8349;SDS011;60699;48.946;8.412;2024-02-15T07:04:12;2.45;;;2.28;;
8349;SDS011;60699;48.946;8.412;2024-02-15T07:06:39;5.60;;;2.70;;
8349;SDS011;60699;48.946;8.412;2024-02-15T07:09:10;4.07;;;3.28;;
8349;SDS011;60699;48.946;8.412;2024-02-15T07:11:37;5.15;;;4.85;;
8349;SDS011;60699;48.946;8.412;2024-02-15T07:14:04;2.60;;;2.38;;
8349;SDS011;60699;48.946;8.412;2024-02-15T07:16:32;2.85;;;2.55;;
8349;SDS011;60699;48.946;8.412;2024-02-15T07:19:00;4.07;;;2.70;;
8349;SDS011;60699;48.946;8.412;2024-02-15T07:21:28;2.78;;;2.55;;
8349;SDS011;60699;48.946;8.412;2024-02-15T07:23:57;2.97;;;2.67;;
8349;SDS011;60699;48.946;8.412;2024-02-15T07:26:24;4.93;;;2.40;;
8349;SDS011;60699;48.946;8.412;2024-02-15T07:28:51;5.10;;;2.60;;
8349;SDS011;60699;48.946;8.412;2024-02-15T07:31:18;5.53;;;2.97;;
8349;SDS011;60699;48.946;8.412;2024-02-15T07:33:46;5.53;;;2.78;;
8349;SDS011;60699;48.946;8.412;2024-02-15T07:36:15;9.05;;;3.00;;
8349;SDS011;60699;48.946;8.412;2024-02-15T07:38:44;5.28;;;2.92;;
8349;SDS011;60699;48.946;8.412;2024-02-15T07:41:13;3.38;;;2.97;;
8349;SDS011;60699;48.946;8.412;2024-02-15T07:43:40;4.13;;;2.20;;
8349;SDS011;60699;48.946;8.412;2024-02-15T07:46:07;3.75;;;1.73;;
8349;SDS011;60699;48.946;8.412;2024-02-15T07:48:39;2.00;;;1.67;;
8349;SDS011;60699;48.946;8.412;2024-02-15T07:51:10;2.08;;;1.42;;
8349;SDS011;60699;48.946;8.412;2024-02-15T07:53:38;2.85;;;1.60;;
8349;SDS011;60699;48.946;8.412;2024-02-15T07:56:08;3.75;;;2.05;;
8349;SDS011;60699;48.946;8.412;2024-02-15T07:58:37;2.05;;;1.80;;
8349;SDS011;60699;48.946;8.412;2024-02-15T08:01:06;1.85;;;1.65;;
8349;SDS011;60699;48.946;8.412;2024-02-15T08:03:33;2.97;;;1.75;;
8349;SDS011;60699;48.946;8.412;2024-02-15T08:06:01;5.60;;;1.88;;
8349;SDS011;60699;48.946;8.412;2024-02-15T08:08:31;1.92;;;1.65;;
8349;SDS011;60699;48.946;8.412;2024-02-15T08:11:00;2.08;;;1.90;;
8349;SDS011;60699;48.946;8.412;2024-02-15T08:13:27;1.92;;;1.83;;
8349;SDS011;60699;48.946;8.412;2024-02-15T08:15:55;2.67;;;2.28;;
8349;SDS011;60699;48.946;8.412;2024-02-15T08:18:22;2.97;;;2.30;;
8349;SDS011;60699;48.946;8.412;2024-02-15T08:20:49;3.20;;;2.35;;
8349;SDS011;60699;48.946;8.412;2024-02-15T08:23:17;3.25;;;2.67;;
8349;SDS011;60699;48.946;8.412;2024-02-15T08:25:44;11.02;;;6.50;;
8349;SDS011;60699;48.946;8.412;2024-02-15T08:28:12;13.10;;;6.47;;
8349;SDS011;60699;48.946;8.412;2024-02-15T08:30:40;4.78;;;3.80;;
8349;SDS011;60699;48.946;8.412;2024-02-15T08:33:07;3.85;;;2.80;;
8349;SDS011;60699;48.946;8.412;2024-02-15T08:35:35;3.00;;;2.75;;
8349;SDS011;60699;48.946;8.412;2024-02-15T08:38:05;6.45;;;3.58;;
8349;SDS011;60699;48.946;8.412;2024-02-15T08:40:32;2.70;;;2.50;;
8349;SDS011;60699;48.946;8.412;2024-02-15T08:43:00;3.30;;;3.00;;
8349;SDS011;60699;48.946;8.412;2024-02-15T08:45:29;3.00;;;2.80;;
8349;SDS011;60699;48.946;8.412;2024-02-15T08:47:56;3.42;;;3.13;;
8349;SDS011;60699;48.946;8.412;2024-02-15T08:50:23;3.90;;;2.83;;
8349;SDS011;60699;48.946;8.412;2024-02-15T08:52:50;3.80;;;2.35;;
8349;SDS011;60699;48.946;8.412;2024-02-15T08:55:17;3.88;;;3.03;;
8349;SDS011;60699;48.946;8.412;2024-02-15T08:57:48;3.88;;;3.53;;
8349;SDS011;60699;48.946;8.412;2024-02-15T09:00:15;3.10;;;2.80;;
8349;SDS011;60699;48.946;8.412;2024-02-15T09:02:44;3.72;;;2.80;;
8349;SDS011;60699;48.946;8.412;2024-02-15T09:05:11;3.08;;;2.80;;
8349;SDS011;60699;48.946;8.412;2024-02-15T09:07:40;7.60;;;2.53;;
8349;SDS011;60699;48.946;8.412;2024-02-15T09:10:08;8.98;;;3.05;;
8349;SDS011;60699;48.946;8.412;2024-02-15T09:12:36;3.05;;;2.78;;
8349;SDS011;60699;48.946;8.412;2024-02-15T09:15:05;5.70;;;3.13;;
8349;SDS011;60699;48.946;8.412;2024-02-15T09:17:32;3.00;;;2.80;;
8349;SDS011;60699;48.946;8.412;2024-02-15T09:20:05;5.72;;;2.55;;
8349;SDS011;60699;48.946;8.412;2024-02-15T09:22:33;7.63;;;3.42;;
8349;SDS011;60699;48.946;8.412;2024-02-15T09:25:01;2.95;;;2.60;;
8349;SDS011;60699;48.946;8.412;2024-02-15T09:27:28;4.20;;;2.67;;
8349;SDS011;60699;48.946;8.412;2024-02-15T09:29:55;8.43;;;2.78;;
8349;SDS011;60699;48.946;8.412;2024-02-15T09:32:22;4.82;;;2.92;;
8349;SDS011;60699;48.946;8.412;2024-02-15T09:34:49;3.30;;;3.00;;
8349;SDS011;60699;48.946;8.412;2024-02-15T09:37:17;3.15;;;2.95;;
8349;SDS011;60699;48.946;8.412;2024-02-15T09:39:44;8.18;;;3.15;;
8349;SDS011;60699;48.946;8.412;2024-02-15T09:42:11;3.85;;;2.53;;
8349;SDS011;60699;48.946;8.412;2024-02-15T09:44:38;4.80;;;3.60;;
8349;SDS011;60699;48.946;8.412;2024-02-15T09:47:09;5.13;;;3.47;;
8349;SDS011;60699;48.946;8.412;2024-02-15T09:49:38;4.07;;;3.70;;
8349;SDS011;60699;48.946;8.412;2024-02-15T09:52:06;5.00;;;3.42;;
8349;SDS011;60699;48.946;8.412;2024-02-15T09:54:37;4.75;;;2.85;;
8349;SDS011;60699;48.946;8.412;2024-02-15T09:57:05;3.38;;;3.08;;
8349;SDS011;60699;48.946;8.412;2024-02-15T09:59:33;3.83;;;3.50;;
8349;SDS011;60699;48.946;8.412;2024-02-15T10:02:01;4.00;;;3.63;;
8349;SDS011;60699;48.946;8.412;2024-02-15T10:04:28;4.75;;;3.53;;
8349;SDS011;60699;48.946;8.412;2024-02-15T10:06:55;3.15;;;2.88;;
8349;SDS011;60699;48.946;8.412;2024-02-15T10:09:23;5.00;;;3.10;;
8349;SDS011;60699;48.946;8.412;2024-02-15T10:11:54;4.35;;;3.10;;
8349;SDS011;60699;48.946;8.412;2024-02-15T10:14:22;3.85;;;2.80;;
8349;SDS011;60699;48.946;8.412;2024-02-15T10:16:49;3.60;;;2.95;;
8349;SDS011;60699;48.946;8.412;2024-02-15T10:19:17;5.65;;;3.60;;
8349;SDS011;60699;48.946;8.412;2024-02-15T10:21:45;3.00;;;2.75;;
8349;SDS011;60699;48.946;8.412;2024-02-15T10:24:12;4.07;;;3.28;;
8349;SDS011;60699;48.946;8.412;2024-02-15T10:26:39;3.97;;;3.03;;
8349;SDS011;60699;48.946;8.412;2024-02-15T10:29:08;5.03;;;3.92;;
8349;SDS011;60699;48.946;8.412;2024-02-15T10:31:36;5.00;;;3.28;;
8349;SDS011;60699;48.946;8.412;2024-02-15T10:34:04;3.45;;;2.88;;
8349;SDS011;60699;48.946;8.412;2024-02-15T10:36:31;2.78;;;2.58;;
8349;SDS011;60699;48.946;8.412;2024-02-15T10:39:11;3.95;;;2.97;;
8349;SDS011;60699;48.946;8.412;2024-02-15T10:41:42;5.72;;;3.30;;
8349;SDS011;60699;48.946;8.412;2024-02-15T10:44:12;3.10;;;2.80;;
8349;SDS011;60699;48.946;8.412;2024-02-15T10:46:40;3.17;;;2.63;;
8349;SDS011;60699;48.946;8.412;2024-02-15T10:49:07;4.70;;;3.50;;
8349;SDS011;60699;48.946;8.412;2024-02-15T10:51:34;2.97;;;2.78;;
8349;SDS011;60699;48.946;8.412;2024-02-15T10:54:02;9.18;;;3.25;;
8349;SDS011;60699;48.946;8.412;2024-02-15T10:56:33;3.63;;;2.45;;
8349;SDS011;60699;48.946;8.412;2024-02-15T10:59:04;4.00;;;2.90;;
8349;SDS011;60699;48.946;8.412;2024-02-15T11:01:36;3.20;;;2.20;;
8349;SDS011;60699;48.946;8.412;2024-02-15T11:04:06;4.78;;;2.50;;
8349;SDS011;60699;48.946;8.412;2024-02-15T11:06:35;4.57;;;2.65;;
8349;SDS011;60699;48.946;8.412;2024-02-15T11:09:04;5.53;;;3.15;;
8349;SDS011;60699;48.946;8.412;2024-02-15T11:11:32;2.60;;;2.40;;
8349;SDS011;60699;48.946;8.412;2024-02-15T11:16:49;4.38;;;3.20;;
8349;SDS011;60699;48.946;8.412;2024-02-15T11:21:58;4.70;;;2.28;;
8349;SDS011;60699;48.946;8.412;2024-02-15T11:24:29;3.00;;;2.80;;
8349;SDS011;60699;48.946;8.412;2024-02-15T11:26:57;2.10;;;1.90;;
8349;SDS011;60699;48.946;8.412;2024-02-15T11:35:03;2.55;;;2.10;;
8349;SDS011;60699;48.946;8.412;2024-02-15T11:40:20;1.98;;;1.80;;
8349;SDS011;60699;48.946;8.412;2024-02-15T11:42:48;4.32;;;2.20;;
8349;SDS011;60699;48.946;8.412;2024-02-15T11:45:15;2.33;;;1.95;;
8349;SDS011;60699;48.946;8.412;2024-02-15T11:47:46;3.33;;;2.25;;
8349;SDS011;60699;48.946;8.412;2024-02-15T11:50:16;4.55;;;2.10;;
8349;SDS011;60699;48.946;8.412;2024-02-15T11:52:45;2.55;;;2.10;;
8349;SDS011;60699;48.946;8.412;2024-02-15T11:55:14;5.63;;;2.00;;
8349;SDS011;60699;48.946;8.412;2024-02-15T11:57:41;2.80;;;1.70;;
8349;SDS011;60699;48.946;8.412;2024-02-15T12:00:22;4.60;;;2.50;;
8349;SDS011;60699;48.946;8.412;2024-02-15T12:03:07;3.45;;;1.88;;
8349;SDS011;60699;48.946;8.412;2024-02-15T12:05:53;1.70;;;1.60;;
8349;SDS011;60699;48.946;8.412;2024-02-15T12:08:38;2.95;;;2.08;;
8349;SDS011;60699;48.946;8.412;2024-02-15T12:11:23;1.70;;;1.60;;
8349;SDS011;60699;48.946;8.412;2024-02-15T12:14:11;2.40;;;2.25;;
8349;SDS011;60699;48.946;8.412;2024-02-15T12:17:03;4.75;;;2.00;;
8349;SDS011;60699;48.946;8.412;2024-02-15T12:19:48;2.00;;;1.80;;
8349;SDS011;60699;48.946;8.412;2024-02-15T12:22:18;3.63;;;2.05;;
8349;SDS011;60699;48.946;8.412;2024-02-15T12:24:52;2.30;;;1.73;;
8349;SDS011;60699;48.946;8.412;2024-02-15T12:27:20;2.38;;;2.28;;
8349;SDS011;60699;48.946;8.412;2024-02-15T12:29:52;1.88;;;1.77;;
8349;SDS011;60699;48.946;8.412;2024-02-15T12:32:19;2.97;;;2.05;;
8349;SDS011;60699;48.946;8.412;2024-02-15T12:34:46;2.33;;;2.03;;
8349;SDS011;60699;48.946;8.412;2024-02-15T12:37:14;2.40;;;1.77;;
8349;SDS011;60699;48.946;8.412;2024-02-15T12:39:47;2.43;;;1.83;;
8349;SDS011;60699;48.946;8.412;2024-02-15T12:42:14;5.18;;;2.00;;
8349;SDS011;60699;48.946;8.412;2024-02-15T12:44:43;2.20;;;2.00;;
8349;SDS011;60699;48.946;8.412;2024-02-15T12:47:17;3.90;;;2.10;;
8349;SDS011;60699;48.946;8.412;2024-02-15T12:49:44;2.33;;;1.98;;
8349;SDS011;60699;48.946;8.412;2024-02-15T12:55:07;2.58;;;2.00;;
8349;SDS011;60699;48.946;8.412;2024-02-15T12:57:34;1.88;;;1.77;;
8349;SDS011;60699;48.946;8.412;2024-02-15T13:00:02;2.63;;;2.42;;
8349;SDS011;60699;48.946;8.412;2024-02-15T13:02:35;3.67;;;1.85;;
8349;SDS011;60699;48.946;8.412;2024-02-15T13:05:03;2.20;;;1.60;;
8349;SDS011;60699;48.946;8.412;2024-02-15T13:07:33;2.20;;;1.50;;
8349;SDS011;60699;48.946;8.412;2024-02-15T13:10:00;2.85;;;2.33;;
8349;SDS011;60699;48.946;8.412;2024-02-15T13:12:28;3.25;;;1.73;;
8349;SDS011;60699;48.946;8.412;2024-02-15T13:14:55;1.67;;;1.58;;
8349;SDS011;60699;48.946;8.412;2024-02-15T13:17:23;2.63;;;1.77;;
8349;SDS011;60699;48.946;8.412;2024-02-15T13:19:51;3.38;;;1.83;;
8349;SDS011;60699;48.946;8.412;2024-02-15T13:22:27;14.53;;;2.00;;
8349;SDS011;60699;48.946;8.412;2024-02-15T13:24:54;2.00;;;1.60;;
8349;SDS011;60699;48.946;8.412;2024-02-15T13:27:21;1.60;;;1.50;;
8349;SDS011;60699;48.946;8.412;2024-02-15T13:29:49;1.70;;;1.60;;
8349;SDS011;60699;48.946;8.412;2024-02-15T13:32:18;3.78;;;1.95;;
8349;SDS011;60699;48.946;8.412;2024-02-15T13:34:47;2.65;;;1.90;;
8349;SDS011;60699;48.946;8.412;2024-02-15T13:37:16;3.80;;;2.00;;
8349;SDS011;60699;48.946;8.412;2024-02-15T13:39:45;2.47;;;2.28;;
8349;SDS011;60699;48.946;8.412;2024-02-15T13:42:12;2.28;;;2.00;;
8349;SDS011;60699;48.946;8.412;2024-02-15T13:44:39;5.57;;;1.85;;
8349;SDS011;60699;48.946;8.412;2024-02-15T13:47:07;1.88;;;1.67;;
8349;SDS011;60699;48.946;8.412;2024-02-15T13:49:34;1.50;;;1.40;;
8349;SDS011;60699;48.946;8.412;2024-02-15T13:52:01;8.85;;;2.58;;
8349;SDS011;60699;48.946;8.412;2024-02-15T13:54:29;2.40;;;1.90;;
8349;SDS011;60699;48.946;8.412;2024-02-15T13:56:56;2.28;;;2.10;;
8349;SDS011;60699;48.946;8.412;2024-02-15T13:59:23;5.40;;;1.70;;
8349;SDS011;60699;48.946;8.412;2024-02-15T14:01:53;3.33;;;1.90;;
8349;SDS011;60699;48.946;8.412;2024-02-15T14:04:22;2.83;;;2.17;;
8349;SDS011;60699;48.946;8.412;2024-02-15T14:06:49;2.50;;;1.83;;
8349;SDS011;60699;48.946;8.412;2024-02-15T14:09:16;2.10;;;2.00;;
8349;SDS011;60699;48.946;8.412;2024-02-15T14:11:43;3.40;;;2.27;;
8349;SDS011;60699;48.946;8.412;2024-02-15T14:14:10;3.67;;;1.60;;
8349;SDS011;60699;48.946;8.412;2024-02-15T14:16:37;2.27;;;2.07;;
8349;SDS011;60699;48.946;8.412;2024-02-15T14:19:05;2.27;;;1.90;;
8349;SDS011;60699;48.946;8.412;2024-02-15T14:21:33;2.40;;;2.13;;
8349;SDS011;60699;48.946;8.412;2024-02-15T14:24:04;2.40;;;1.80;;
8349;SDS011;60699;48.946;8.412;2024-02-15T14:26:33;1.83;;;1.73;;
8349;SDS011;60699;48.946;8.412;2024-02-15T14:29:00;2.03;;;1.67;;
8349;SDS011;60699;48.946;8.412;2024-02-15T14:31:28;2.30;;;1.90;;
8349;SDS011;60699;48.946;8.412;2024-02-15T14:34:13;1.60;;;1.50;;
8349;SDS011;60699;48.946;8.412;2024-02-15T14:36:44;2.03;;;1.83;;
8349;SDS011;60699;48.946;8.412;2024-02-15T14:39:12;1.53;;;1.43;;
8349;SDS011;60699;48.946;8.412;2024-02-15T14:41:39;4.43;;;1.60;;
8349;SDS011;60699;48.946;8.412;2024-02-15T14:44:07;3.58;;;1.50;;
8349;SDS011;60699;48.946;8.412;2024-02-15T14:46:34;2.65;;;1.60;;
8349;SDS011;60699;48.946;8.412;2024-02-15T14:49:01;3.17;;;1.92;;
8349;SDS011;60699;48.946;8.412;2024-02-15T14:51:29;2.78;;;1.60;;
8349;SDS011;60699;48.946;8.412;2024-02-15T14:53:58;2.00;;;1.58;;
8349;SDS011;60699;48.946;8.412;2024-02-15T14:56:25;1.60;;;1.50;;
8349;SDS011;60699;48.946;8.412;2024-02-15T14:58:53;3.25;;;1.92;;
8349;SDS011;60699;48.946;8.412;2024-02-15T15:01:20;2.10;;;1.50;;
8349;SDS011;60699;48.946;8.412;2024-02-15T15:03:52;3.30;;;1.80;;
8349;SDS011;60699;48.946;8.412;2024-02-15T15:06:22;3.10;;;2.00;;
8349;SDS011;60699;48.946;8.412;2024-02-15T15:09:08;2.75;;;1.73;;
8349;SDS011;60699;48.946;8.412;2024-02-15T15:11:53;2.13;;;1.90;;
8349;SDS011;60699;48.946;8.412;2024-02-15T15:14:37;4.73;;;1.53;;
8349;SDS011;60699;48.946;8.412;2024-02-15T15:17:04;2.03;;;1.60;;
8349;SDS011;60699;48.946;8.412;2024-02-15T15:19:31;1.70;;;1.60;;
8349;SDS011;60699;48.946;8.412;2024-02-15T15:21:58;1.90;;;1.80;;
8349;SDS011;60699;48.946;8.412;2024-02-15T15:24:27;1.65;;;1.55;;
8349;SDS011;60699;48.946;8.412;2024-02-15T15:26:54;6.60;;;2.15;;